createdAt,value
2022-11-14T00:00:55.320Z,13.93
2022-11-14T00:03:22.004Z,13.63
2022-11-14T00:05:48.747Z,13.17
2022-11-14T00:08:27.932Z,13.60
2022-11-14T00:10:54.972Z,14.03
2022-11-14T00:13:21.623Z,13.27
2022-11-14T00:15:59.073Z,13.47
2022-11-14T00:18:25.812Z,14.03
2022-11-14T00:20:53.618Z,13.80
2022-11-14T00:23:21.248Z,13.47
2022-11-14T00:25:48.284Z,13.70
2022-11-14T00:28:15.147Z,14.90
2022-11-14T00:30:41.852Z,14.40
2022-11-14T00:33:08.572Z,13.67
2022-11-14T00:35:35.209Z,14.50
2022-11-14T00:38:01.884Z,14.70
2022-11-14T00:40:28.578Z,13.47
2022-11-14T00:42:55.241Z,15.17
2022-11-14T00:45:22.112Z,14.17
2022-11-14T00:47:48.927Z,14.87
2022-11-14T00:50:16.824Z,14.50
2022-11-14T00:52:43.500Z,14.47
2022-11-14T00:55:10.186Z,14.00
2022-11-14T00:57:36.898Z,15.70
2022-11-14T01:00:05.045Z,14.23
2022-11-14T01:02:31.784Z,14.97
2022-11-14T01:05:00.102Z,14.70
2022-11-14T01:07:27.071Z,14.80
2022-11-14T01:09:53.753Z,14.37
2022-11-14T01:12:20.423Z,14.53
2022-11-14T01:14:47.172Z,14.07
2022-11-14T01:17:13.845Z,14.83
2022-11-14T01:19:40.985Z,14.67
2022-11-14T01:22:07.706Z,14.87
2022-11-14T01:24:34.761Z,14.80
2022-11-14T01:27:01.593Z,14.53
2022-11-14T01:29:28.417Z,14.10
2022-11-14T01:31:55.289Z,14.47
2022-11-14T01:34:22.648Z,14.80
2022-11-14T01:36:49.337Z,14.37
2022-11-14T01:39:16.103Z,14.10
2022-11-14T01:41:42.823Z,13.30
2022-11-14T01:44:19.695Z,13.93
2022-11-14T01:47:12.947Z,15.10
2022-11-14T01:49:43.931Z,13.93
2022-11-14T01:52:31.500Z,13.83
2022-11-14T01:55:01.048Z,14.10
2022-11-14T01:57:32.311Z,13.53
2022-11-14T02:00:02.567Z,13.90
2022-11-14T02:02:29.352Z,13.53
2022-11-14T02:05:17.213Z,13.70
2022-11-14T02:07:44.040Z,13.60
2022-11-14T02:10:17.402Z,14.37
2022-11-14T02:12:45.118Z,12.90
2022-11-14T02:15:12.911Z,12.67
2022-11-14T02:17:40.642Z,13.60
2022-11-14T02:20:18.212Z,13.97
2022-11-14T02:22:44.885Z,13.47
2022-11-14T02:25:14.937Z,13.50
2022-11-14T02:27:41.841Z,13.60
2022-11-14T02:30:13.192Z,13.60
2022-11-14T02:33:08.915Z,12.50
2022-11-14T02:35:26.619Z,12.60
2022-11-14T02:37:53.309Z,13.03
2022-11-14T02:40:20.031Z,13.87
2022-11-14T02:42:46.700Z,12.50
2022-11-14T02:45:14.035Z,12.63
2022-11-14T02:47:40.658Z,12.80
2022-11-14T02:50:07.571Z,12.80
2022-11-14T02:52:34.244Z,12.90
2022-11-14T02:55:00.979Z,13.10
2022-11-14T02:57:27.627Z,12.97
2022-11-14T02:59:54.244Z,13.27
2022-11-14T03:02:20.890Z,12.37
2022-11-14T03:04:47.581Z,14.00
2022-11-14T03:07:14.297Z,13.83
2022-11-14T03:09:41.038Z,13.43
2022-11-14T03:12:07.950Z,13.17
2022-11-14T03:14:34.639Z,12.93
2022-11-14T03:17:01.279Z,12.93
2022-11-14T03:19:27.923Z,12.70
2022-11-14T03:21:54.563Z,13.70
2022-11-14T03:24:21.221Z,12.37
2022-11-14T03:26:47.866Z,13.13
2022-11-14T03:29:14.496Z,14.03
2022-11-14T03:31:41.200Z,12.47
2022-11-14T03:34:09.159Z,13.37
2022-11-14T03:36:35.951Z,13.33
2022-11-14T03:39:04.304Z,13.13
2022-11-14T03:41:31.417Z,12.37
2022-11-14T03:43:58.475Z,11.87
2022-11-14T03:46:25.142Z,11.60
2022-11-14T03:48:51.785Z,11.67
2022-11-14T03:51:18.429Z,12.23
2022-11-14T03:53:45.119Z,12.20
2022-11-14T03:56:11.799Z,12.73
2022-11-14T03:58:38.510Z,11.90
2022-11-14T04:01:05.220Z,11.50
2022-11-14T04:03:31.915Z,11.17
2022-11-14T04:05:58.594Z,11.03
2022-11-14T04:08:25.271Z,12.33
2022-11-14T04:10:51.980Z,11.53
2022-11-14T04:13:18.616Z,10.80
2022-11-14T04:15:46.101Z,11.80
2022-11-14T04:18:12.943Z,11.87
2022-11-14T04:20:39.743Z,11.13
2022-11-14T04:23:06.354Z,11.50
2022-11-14T04:25:33.021Z,11.13
2022-11-14T04:27:59.672Z,10.23
2022-11-14T04:30:29.702Z,10.77
2022-11-14T04:32:58.771Z,10.80
2022-11-14T04:35:25.388Z,10.90
2022-11-14T04:37:52.022Z,10.27
2022-11-14T04:40:18.749Z,11.03
2022-11-14T04:42:45.399Z,10.60
2022-11-14T04:45:12.077Z,10.10
2022-11-14T04:47:40.995Z,11.13
2022-11-14T04:50:08.198Z,10.53
2022-11-14T04:52:34.883Z,10.00
2022-11-14T04:55:01.948Z,9.53
2022-11-14T04:57:28.625Z,10.20
2022-11-14T04:59:55.350Z,9.93
2022-11-14T05:02:21.998Z,9.77
2022-11-14T05:04:48.648Z,9.90
2022-11-14T05:07:15.554Z,10.20
2022-11-14T05:09:42.368Z,10.10
2022-11-14T05:12:09.014Z,10.20
2022-11-14T05:14:35.671Z,10.27
2022-11-14T05:17:02.319Z,10.43
2022-11-14T05:19:28.996Z,10.73
2022-11-14T05:21:55.694Z,10.40
2022-11-14T05:24:22.399Z,9.80
2022-11-14T05:26:49.055Z,10.37
2022-11-14T05:29:15.828Z,9.70
2022-11-14T05:31:42.490Z,9.57
2022-11-14T05:34:09.130Z,9.77
2022-11-14T05:36:35.785Z,9.57
2022-11-14T05:39:02.464Z,10.90
2022-11-14T05:41:29.113Z,10.20
2022-11-14T05:43:55.759Z,10.33
2022-11-14T05:46:22.420Z,10.37
2022-11-14T05:48:49.090Z,9.70
2022-11-14T05:51:15.832Z,10.00
2022-11-14T05:53:42.585Z,10.33
2022-11-14T05:56:13.411Z,10.17
2022-11-14T05:58:40.241Z,10.10
2022-11-14T06:01:16.081Z,10.47
2022-11-14T06:03:48.290Z,10.10
2022-11-14T06:06:19.068Z,10.67
2022-11-14T06:08:45.877Z,10.40
2022-11-14T06:11:17.764Z,10.50
2022-11-14T06:13:44.694Z,10.63
2022-11-14T06:16:16.224Z,10.53
2022-11-14T06:18:44.093Z,10.43
2022-11-14T06:21:13.243Z,10.00
2022-11-14T06:23:40.327Z,10.07
2022-11-14T06:26:15.018Z,11.10
2022-11-14T06:28:41.737Z,11.00
2022-11-14T06:31:08.408Z,10.10
2022-11-14T06:33:36.431Z,11.20
2022-11-14T06:36:06.115Z,10.97
2022-11-14T06:38:34.437Z,11.93
2022-11-14T06:41:08.927Z,11.60
2022-11-14T06:43:38.517Z,11.10
2022-11-14T06:46:06.902Z,11.20
2022-11-14T06:48:34.177Z,12.13
2022-11-14T06:51:02.076Z,12.07
2022-11-14T06:53:31.109Z,12.03
2022-11-14T06:56:03.294Z,11.63
2022-11-14T06:58:32.625Z,11.87
2022-11-14T07:01:06.651Z,12.20
2022-11-14T07:03:33.910Z,11.17
2022-11-14T07:06:04.992Z,11.73
2022-11-14T07:08:32.544Z,12.10
2022-11-14T07:11:10.985Z,11.80
2022-11-14T07:13:38.460Z,10.93
2022-11-14T07:16:05.794Z,10.83
2022-11-14T07:18:34.050Z,10.50
2022-11-14T07:21:05.834Z,11.30
2022-11-14T07:23:33.875Z,10.93
2022-11-14T07:26:02.512Z,11.57
2022-11-14T07:28:29.848Z,10.97
2022-11-14T07:30:56.787Z,10.80
2022-11-14T07:33:23.428Z,11.30
2022-11-14T07:35:51.516Z,11.27
2022-11-14T07:38:18.207Z,10.77
2022-11-14T07:40:59.809Z,11.10
2022-11-14T07:43:27.595Z,10.70
2022-11-14T07:45:54.396Z,10.40
2022-11-14T07:48:21.922Z,10.60
2022-11-14T07:50:48.584Z,10.47
2022-11-14T07:53:16.638Z,10.40
2022-11-14T07:55:43.662Z,9.77
2022-11-14T07:58:10.330Z,9.57
2022-11-14T08:00:37.112Z,9.60
2022-11-14T08:03:06.210Z,10.20
2022-11-14T08:05:32.828Z,9.00
2022-11-14T08:07:59.515Z,10.23
2022-11-14T08:10:29.767Z,9.80
2022-11-14T08:13:25.250Z,9.70
2022-11-14T08:15:48.839Z,9.73
2022-11-14T08:18:15.494Z,9.87
2022-11-14T08:20:42.439Z,9.10
2022-11-14T08:23:10.271Z,9.57
2022-11-14T08:25:37.089Z,9.37
2022-11-14T08:28:04.101Z,9.33
2022-11-14T08:30:30.816Z,8.87
2022-11-14T08:32:57.732Z,9.67
2022-11-14T08:35:24.337Z,9.53
2022-11-14T08:37:50.933Z,9.53
2022-11-14T08:40:17.603Z,9.03
2022-11-14T08:42:44.277Z,8.97
2022-11-14T08:45:11.030Z,10.23
2022-11-14T08:47:37.683Z,8.93
2022-11-14T08:50:04.834Z,8.67
2022-11-14T08:52:31.474Z,9.07
2022-11-14T08:54:58.152Z,8.90
2022-11-14T08:57:24.794Z,8.97
2022-11-14T08:59:51.440Z,9.60
2022-11-14T09:02:18.390Z,8.53
2022-11-14T09:04:45.343Z,8.90
2022-11-14T09:07:12.187Z,9.30
2022-11-14T09:09:39.534Z,8.97
2022-11-14T09:12:06.437Z,9.93
2022-11-14T09:14:33.068Z,9.33
2022-11-14T09:17:05.487Z,9.60
2022-11-14T09:19:32.646Z,8.80
2022-11-14T09:21:59.304Z,9.30
2022-11-14T09:24:26.038Z,8.83
2022-11-14T09:42:35.423Z,9.33
2022-11-14T09:45:04.843Z,9.20
2022-11-14T09:47:45.009Z,9.37
2022-11-14T09:50:16.319Z,9.23
2022-11-14T09:53:03.187Z,8.97
2022-11-14T09:55:36.884Z,8.60
2022-11-14T09:58:08.464Z,8.77
2022-11-14T10:00:56.814Z,8.50
2022-11-14T10:03:49.389Z,9.00
2022-11-14T10:06:31.727Z,8.80
2022-11-14T10:09:07.683Z,8.83
2022-11-14T10:11:44.962Z,9.33
2022-11-14T10:14:23.482Z,8.63
2022-11-14T10:17:27.871Z,8.47
2022-11-14T10:20:07.459Z,8.53
2022-11-14T10:22:44.517Z,9.10
2022-11-14T10:25:27.748Z,8.80
2022-11-14T10:28:32.370Z,9.00
2022-11-14T10:31:42.113Z,8.63
2022-11-14T10:34:15.099Z,8.40
2022-11-14T10:36:57.971Z,8.80
2022-11-14T10:39:27.019Z,8.73
2022-11-14T10:42:03.232Z,9.10
2022-11-14T10:44:40.690Z,8.90
2022-11-14T10:47:14.568Z,7.80
2022-11-14T10:49:41.913Z,8.63
2022-11-14T10:52:15.780Z,7.50
2022-11-14T10:54:50.201Z,7.97
2022-11-14T10:57:20.248Z,7.60
2022-11-14T10:59:47.420Z,7.73
2022-11-14T11:02:15.091Z,8.07
2022-11-14T11:04:44.503Z,7.27
2022-11-14T11:07:31.260Z,7.33
2022-11-14T11:10:19.720Z,6.93
2022-11-14T11:12:56.129Z,7.07
2022-11-14T11:15:33.910Z,6.73
2022-11-14T11:18:02.887Z,6.57
2022-11-14T11:20:32.066Z,6.97
2022-11-14T11:23:04.380Z,6.83
2022-11-14T11:25:33.026Z,6.60
2022-11-14T11:28:07.412Z,6.57
2022-11-14T11:30:34.518Z,6.53
2022-11-14T11:33:29.593Z,6.03
2022-11-14T11:36:03.706Z,5.77
2022-11-14T11:38:32.873Z,5.80
2022-11-14T11:44:19.867Z,5.90
2022-11-14T11:46:56.311Z,5.53
2022-11-14T11:49:51.757Z,6.40
2022-11-14T11:52:33.534Z,5.80
2022-11-14T11:55:09.215Z,5.93
2022-11-14T11:57:43.591Z,6.40
2022-11-14T12:00:20.370Z,6.30
2022-11-14T12:02:50.457Z,5.73
2022-11-14T12:05:34.644Z,5.73
2022-11-14T12:08:04.457Z,6.10
2022-11-14T12:10:37.932Z,5.70
2022-11-14T12:13:23.324Z,6.37
2022-11-14T12:16:12.685Z,5.90
2022-11-14T12:19:07.133Z,6.00
2022-11-14T12:21:58.815Z,6.70
2022-11-14T12:24:40.636Z,5.80
2022-11-14T12:27:22.574Z,5.73
2022-11-14T12:30:16.836Z,5.90
2022-11-14T12:32:54.082Z,5.30
2022-11-14T12:35:26.086Z,5.37
2022-11-14T12:37:56.414Z,4.83
2022-11-14T12:40:25.447Z,5.40
2022-11-14T12:42:52.761Z,5.17
2022-11-14T12:45:40.916Z,4.67
2022-11-14T12:48:26.051Z,5.03
2022-11-14T12:50:57.108Z,5.43
2022-11-14T12:53:39.327Z,5.10
2022-11-14T12:56:24.713Z,4.90
2022-11-14T12:59:28.603Z,4.37
2022-11-14T13:02:22.389Z,4.43
2022-11-14T13:05:13.857Z,4.10
2022-11-14T13:07:52.553Z,4.10
2022-11-14T13:10:37.280Z,4.37
2022-11-14T13:13:27.093Z,3.73
2022-11-14T13:16:14.187Z,3.60
2022-11-14T13:19:30.775Z,3.10
2022-11-14T13:22:12.500Z,3.40
2022-11-14T13:25:11.215Z,2.90
2022-11-14T13:28:07.272Z,3.40
2022-11-14T13:31:02.174Z,2.90
2022-11-14T13:33:59.940Z,3.10
2022-11-14T13:36:54.542Z,3.10
2022-11-14T13:39:24.143Z,3.10
2022-11-14T13:42:00.474Z,2.90
2022-11-14T13:44:53.463Z,2.70
2022-11-14T13:47:35.006Z,2.70
2022-11-14T13:50:17.534Z,2.50
2022-11-14T13:52:47.047Z,2.50
2022-11-14T13:55:54.718Z,2.97
2022-11-14T13:58:21.313Z,2.90
2022-11-14T14:01:06.657Z,2.87
2022-11-14T14:04:11.004Z,2.40
2022-11-14T14:07:11.941Z,2.63
2022-11-14T14:10:25.392Z,2.40
2022-11-14T14:13:23.776Z,2.30
2022-11-14T14:16:12.039Z,2.13
2022-11-14T14:19:02.418Z,2.33
2022-11-14T14:21:54.273Z,2.90
2022-11-14T14:24:23.746Z,2.53
2022-11-14T14:26:59.379Z,2.60
2022-11-14T14:29:49.532Z,2.67
2022-11-14T14:32:19.396Z,2.67
2022-11-14T14:34:46.135Z,2.40
2022-11-14T14:37:24.454Z,2.50
2022-11-14T14:40:01.572Z,2.50
2022-11-14T14:42:36.338Z,2.17
2022-11-14T14:45:04.461Z,2.57
2022-11-14T14:47:39.335Z,2.60
2022-11-14T14:50:20.686Z,2.70
2022-11-14T14:52:56.183Z,2.53
2022-11-14T14:55:24.441Z,2.63
2022-11-14T14:57:51.150Z,2.53
2022-11-14T15:00:25.938Z,2.43
2022-11-14T15:02:55.468Z,2.33
2022-11-14T15:05:27.543Z,2.40
2022-11-14T15:07:59.190Z,2.30
2022-11-14T15:10:31.770Z,2.30
2022-11-14T15:12:59.280Z,2.40
2022-11-14T15:15:27.752Z,2.50
2022-11-14T15:17:55.849Z,2.37
2022-11-14T15:20:28.108Z,2.20
2022-11-14T15:23:20.042Z,2.30
2022-11-14T15:25:47.395Z,1.80
2022-11-14T15:28:17.565Z,2.00
2022-11-14T15:30:58.143Z,2.33
2022-11-14T15:33:35.216Z,1.93
2022-11-14T15:36:11.395Z,2.23
2022-11-14T15:38:45.899Z,2.17
2022-11-14T15:41:27.834Z,2.40
2022-11-14T15:44:01.628Z,2.57
2022-11-14T15:46:35.195Z,2.60
2022-11-14T15:49:09.249Z,2.57
2022-11-14T15:52:00.557Z,2.57
2022-11-14T15:54:35.303Z,2.27
2022-11-14T15:57:13.288Z,2.40
2022-11-14T15:59:40.047Z,2.27
2022-11-14T16:02:23.793Z,2.60
2022-11-14T16:04:52.136Z,2.53
2022-11-14T16:07:19.811Z,2.77
2022-11-14T16:09:46.709Z,2.50
2022-11-14T16:12:13.630Z,2.40
2022-11-14T16:14:40.927Z,3.07
2022-11-14T16:17:13.801Z,3.10
2022-11-14T16:19:41.070Z,2.97
2022-11-14T16:22:12.528Z,2.90
2022-11-14T16:24:39.638Z,3.20
2022-11-14T16:27:06.693Z,2.90
2022-11-14T16:29:33.368Z,3.10
2022-11-14T16:32:00.174Z,3.07
2022-11-14T16:34:27.459Z,3.00
2022-11-14T16:37:02.123Z,3.27
2022-11-14T16:39:29.405Z,3.00
2022-11-14T16:42:02.877Z,3.40
2022-11-14T16:44:29.784Z,2.83
2022-11-14T16:46:56.595Z,2.90
2022-11-14T16:49:23.526Z,3.10
2022-11-14T16:51:51.553Z,3.30
2022-11-14T16:54:20.044Z,3.27
2022-11-14T16:56:47.554Z,3.43
2022-11-14T16:59:14.439Z,3.13
2022-11-14T17:01:41.410Z,3.60
2022-11-14T17:04:08.211Z,3.50
2022-11-14T17:06:35.056Z,3.13
2022-11-14T17:09:02.306Z,3.20
2022-11-14T17:11:29.287Z,3.47
2022-11-14T17:13:56.828Z,4.10
2022-11-14T17:16:23.914Z,3.43
2022-11-14T17:18:54.951Z,3.57
2022-11-14T17:21:22.647Z,3.67
2022-11-14T17:23:57.277Z,4.07
2022-11-14T17:26:23.996Z,3.63
2022-11-14T17:28:50.830Z,3.93
2022-11-14T17:31:17.643Z,3.90
2022-11-14T17:33:49.986Z,4.17
2022-11-14T17:36:17.138Z,4.03
2022-11-14T17:38:43.837Z,4.60
2022-11-14T17:41:10.571Z,5.37
2022-11-14T17:43:39.560Z,4.87
2022-11-14T17:46:11.198Z,4.73
2022-11-14T17:48:42.408Z,4.50
2022-11-14T17:51:12.823Z,4.37
2022-11-14T17:53:40.051Z,4.20
2022-11-14T17:56:10.163Z,4.50
2022-11-14T17:58:36.830Z,4.80
2022-11-14T18:01:12.534Z,5.07
2022-11-14T18:03:39.381Z,4.63
2022-11-14T18:06:11.197Z,5.27
2022-11-14T18:08:38.511Z,4.97
2022-11-14T18:11:08.098Z,5.17
2022-11-14T18:13:35.077Z,4.90
2022-11-14T18:16:07.904Z,5.10
2022-11-14T18:18:36.149Z,4.73
2022-11-14T18:21:10.669Z,4.90
2022-11-14T18:23:38.684Z,4.77
2022-11-14T18:26:15.796Z,4.83
2022-11-14T18:28:43.063Z,4.60
2022-11-14T18:31:11.232Z,5.23
2022-11-14T18:33:42.097Z,5.10
2022-11-14T18:36:12.517Z,5.17
2022-11-14T18:38:39.554Z,5.80
2022-11-14T18:41:13.175Z,5.23
2022-11-14T18:43:40.277Z,5.90
2022-11-14T18:46:09.387Z,5.80
2022-11-14T18:48:37.423Z,5.70
2022-11-14T18:51:26.067Z,5.80
2022-11-14T18:53:55.235Z,5.90
2022-11-14T18:56:23.007Z,5.40
2022-11-14T18:58:54.107Z,5.50
2022-11-14T19:01:26.943Z,6.53
2022-11-14T19:03:56.891Z,5.80
2022-11-14T19:06:24.200Z,5.50
2022-11-14T19:08:51.052Z,6.03
2022-11-14T19:11:37.496Z,5.90
2022-11-14T19:14:05.817Z,5.70
2022-11-14T19:16:37.039Z,5.60
2022-11-14T19:19:05.627Z,5.63
2022-11-14T19:21:32.337Z,5.83
2022-11-14T19:24:02.068Z,6.63
2022-11-14T19:26:29.510Z,6.60
2022-11-14T19:28:57.013Z,6.40
2022-11-14T19:31:24.236Z,6.57
2022-11-14T19:33:51.246Z,6.87
2022-11-14T19:36:38.556Z,6.17
2022-11-14T19:39:07.625Z,6.63
2022-11-14T19:41:34.780Z,6.53
2022-11-14T19:44:02.616Z,6.90
2022-11-14T19:46:29.756Z,7.17
2022-11-14T19:49:01.035Z,6.70
2022-11-14T19:51:28.831Z,7.00
2022-11-14T19:53:57.554Z,6.87
2022-11-14T19:56:25.067Z,7.73
2022-11-14T19:58:53.664Z,7.23
2022-11-14T20:01:23.047Z,7.00
2022-11-14T20:03:58.002Z,7.10
2022-11-14T20:06:31.011Z,7.13
2022-11-14T20:09:00.425Z,7.03
2022-11-14T20:11:28.537Z,7.30
2022-11-14T20:13:56.374Z,7.23
2022-11-14T20:16:25.856Z,7.30
2022-11-14T20:18:58.575Z,6.93
2022-11-14T20:21:27.275Z,7.50
2022-11-14T20:23:54.228Z,6.87
2022-11-14T20:26:21.204Z,7.53
2022-11-14T20:28:50.633Z,7.27
2022-11-14T20:31:20.099Z,7.33
2022-11-14T20:33:47.906Z,7.30
2022-11-14T20:36:21.281Z,7.20
2022-11-14T20:38:48.549Z,7.00
2022-11-14T20:41:15.841Z,7.37
2022-11-14T20:43:43.301Z,6.53
2022-11-14T20:46:14.603Z,7.10
2022-11-14T20:48:41.805Z,6.83
2022-11-14T20:51:14.277Z,6.37
2022-11-14T20:53:41.591Z,7.07
2022-11-14T20:56:08.768Z,7.10
2022-11-14T20:58:35.720Z,5.83
2022-11-14T21:01:02.913Z,6.97
2022-11-14T21:03:30.034Z,6.70
2022-11-14T21:05:57.654Z,7.03
2022-11-14T21:08:24.396Z,7.43
2022-11-14T21:10:58.970Z,6.87
2022-11-14T21:13:44.363Z,6.50
2022-11-14T21:16:19.112Z,6.70
2022-11-14T21:18:48.099Z,6.77
2022-11-14T21:21:20.673Z,6.27
2022-11-14T21:23:47.791Z,6.23
2022-11-14T21:26:22.239Z,6.83
2022-11-14T21:28:52.018Z,6.50
2022-11-14T21:31:22.991Z,6.43
2022-11-14T21:33:53.955Z,6.87
2022-11-14T21:39:07.759Z,6.60
2022-11-14T21:41:34.426Z,6.27
2022-11-14T21:44:03.119Z,7.20
2022-11-14T21:46:29.954Z,5.70
2022-11-14T21:48:57.221Z,5.80
2022-11-14T21:51:26.540Z,6.30
2022-11-14T21:53:55.414Z,6.20
2022-11-14T21:56:27.879Z,6.77
2022-11-14T21:59:14.991Z,6.77
2022-11-14T22:02:06.087Z,6.67
2022-11-14T22:04:33.322Z,6.83
2022-11-14T22:07:02.910Z,6.40
2022-11-14T22:09:30.374Z,6.53
2022-11-14T22:11:58.034Z,6.67
2022-11-14T22:14:25.020Z,7.33
2022-11-14T22:16:51.808Z,6.40
2022-11-14T22:19:18.942Z,5.63
2022-11-14T22:21:45.953Z,6.53
2022-11-14T22:24:12.655Z,6.00
2022-11-14T22:26:40.435Z,6.67
2022-11-14T22:29:08.243Z,6.23
2022-11-14T22:31:35.561Z,6.37
2022-11-14T22:34:02.270Z,6.40
2022-11-14T22:36:29.212Z,6.10
2022-11-14T22:38:56.950Z,6.40
2022-11-14T22:41:30.707Z,6.00
2022-11-14T22:43:59.548Z,6.20
2022-11-14T22:46:27.429Z,5.47
2022-11-14T22:48:54.674Z,6.47
2022-11-14T22:51:26.452Z,5.57
2022-11-14T22:53:55.172Z,6.07
2022-11-14T22:56:24.217Z,5.83
2022-11-14T22:58:51.257Z,6.10
2022-11-14T23:01:23.407Z,6.00
2022-11-14T23:04:04.781Z,5.67
2022-11-14T23:06:33.357Z,5.70
2022-11-14T23:09:01.409Z,6.00
2022-11-14T23:11:30.499Z,5.43
2022-11-14T23:13:58.659Z,5.60
2022-11-14T23:16:33.552Z,5.70
2022-11-14T23:19:03.226Z,6.20
2022-11-14T23:21:35.148Z,5.97
2022-11-14T23:24:05.284Z,5.67
2022-11-14T23:26:32.984Z,6.00
2022-11-14T23:29:00.470Z,5.90
2022-11-14T23:31:27.193Z,5.73
2022-11-14T23:33:56.349Z,5.53
2022-11-14T23:36:23.044Z,6.43
2022-11-14T23:38:53.010Z,5.50
2022-11-14T23:41:22.213Z,5.37
2022-11-14T23:43:48.982Z,5.80
2022-11-14T23:46:15.796Z,5.97
2022-11-14T23:48:42.479Z,5.53
2022-11-14T23:51:09.886Z,5.60
2022-11-14T23:53:36.693Z,4.93
2022-11-14T23:56:03.538Z,5.80
2022-11-14T23:58:30.644Z,5.53
